Aeroporto :
LOGIN :

Iscrizione | Disclaimer

   EN    FR    IT 

 










Sommario :    VFR   VFR Marginale   IFR   IFR Intensivo   IFR Molto Intensivo
Visibilità : 
Base nubi : 
>= 8 km
>= 3000ft
5 / 8 km
1000 / 3000 ft
1500m / 5 km
500 / 1000 ft
800 / 1500m
200 / 500 ft
< 800m
< 200 ft
Simboli :   Temporali  Nebbia  Neve Forte  Precipitazioni Forti  Vento > 20 kt
SIGMETs :   Varie  Temporali  Ghiacco  Turbolenza  Onda orograficha  Ceneri Vulcaniche







- Altitudine del aeroporto : 68 ft
- Codice IATA : AGH


ESTA - Ängelholm-Helsingborg

ULTIMO METAR :
  • 220720Z 14007KT 9999 OVC008 06/04 Q1032

METARs OBSOLETI :
  • 220650Z 13007KT 9999 OVC008 05/04 Q1032
  • 220620Z 14007KT 9999 OVC007 05/04 Q1032
  • 220550Z 13008KT 9999 OVC007 05/04 Q1032
  • 220520Z 13007KT 9999 OVC007 05/04 Q1032
  • 220450Z AUTO 10005KT 9999 OVC007/// 05/04 Q1031

TAF TAF ESTA
Valido dal 22 a 06 ore il 22 a 15 ore UTC


220515Z 2206/2215 10005KT 9999 BKN005
PROB40 2206/2208 0200 FG VV001
TEMPO 2208/2215 SCT005
Nessun NOTAM noto per questo aeroporto.



MetMap, La meteo Aeronautica in un colpo d'occhio ! - Copyright ORBIFLY Dicembre 2007 - Disclaimer

ORBIFLY MET'MAP TEAM :

Programmazione e sviluppo : Alexandra Zaïnal
Concezione e sviluppo : Baudouin d'Aumeries
Co-Programmazione e sviluppo : Marc-Olivier Méhu
Supporto tecnico e logistico : Manuel Goepfert
Aiuto per la traduzione : Arnaldo La Scala

Contatto : metmap@orbifly.com




FONTI E CREDITI :

   NOAA